Time,TemperatureF,DewpointF,PressureIn,WindDirection,WindDirectionDegrees,WindSpeedMPH,WindSpeedGustMPH,Humidity,HourlyPrecipIn,Conditions,Clouds,dailyrainin,SoftwareType,DateUTC
2013-03-13 00:03:00,49.0,47.0,29.75,North,0,0.0,4.0,92,0.00,,,0.00,,2013-03-13 04:03:00,
2013-03-13 00:13:00,49.0,47.0,29.75,North,0,0.0,4.0,92,0.00,,,0.00,,2013-03-13 04:13:00,
2013-03-13 00:22:00,46.0,44.0,29.75,North,4,7.0,11.0,92,0.00,,,0.00,,2013-03-13 04:22:00,
2013-03-13 00:32:00,45.0,43.0,29.75,North,0,3.0,7.0,92,0.00,,,0.00,,2013-03-13 04:32:00,
2013-03-13 00:43:00,45.0,43.0,29.75,North,0,3.0,7.0,92,0.00,,,0.00,,2013-03-13 04:43:00,
2013-03-13 00:53:00,44.0,42.0,29.76,NNE,23,0.0,0.0,92,0.00,,,0.00,,2013-03-13 04:53:00,
2013-03-13 01:02:00,43.0,41.0,29.76,NW,315,0.0,4.0,91,0.00,,,0.00,,2013-03-13 05:02:00,
2013-03-13 01:12:00,43.0,41.0,29.76,NW,315,0.0,4.0,91,0.00,,,0.00,,2013-03-13 05:12:00,
2013-03-13 01:22:00,43.0,41.0,29.75,NE,35,4.0,9.0,91,0.00,,,0.00,,2013-03-13 05:22:00,
2013-03-13 01:32:00,42.0,40.0,29.75,North,0,5.0,5.0,91,0.00,,,0.00,,2013-03-13 05:32:00,
2013-03-13 01:42:00,42.0,40.0,29.75,North,0,5.0,5.0,91,0.00,,,0.00,,2013-03-13 05:42:00,
2013-03-13 01:52:00,42.0,39.0,29.75,NE,45,0.0,0.0,90,0.00,,,0.00,,2013-03-13 05:52:00,
2013-03-13 02:02:00,41.0,38.0,29.75,NE,45,4.0,4.0,90,0.00,,,0.00,,2013-03-13 06:02:00,
2013-03-13 02:12:00,41.0,38.0,29.75,NE,45,4.0,4.0,90,0.00,,,0.00,,2013-03-13 06:12:00,
2013-03-13 02:23:00,41.0,38.0,29.75,NW,315,0.0,2.0,90,0.00,,,0.00,,2013-03-13 06:23:00,
2013-03-13 02:32:00,40.0,37.0,29.75,NE,45,0.0,0.0,90,0.00,,,0.00,,2013-03-13 06:32:00,
2013-03-13 02:42:00,40.0,37.0,29.75,NE,45,0.0,0.0,90,0.00,,,0.00,,2013-03-13 06:42:00,
2013-03-13 02:53:00,40.0,37.0,29.76,North,0,0.0,0.0,90,0.00,,,0.00,,2013-03-13 06:53:00,
2013-03-13 03:02:00,40.0,37.0,29.75,NNE,23,0.0,0.0,90,0.00,,,0.00,,2013-03-13 07:02:00,
2013-03-13 03:12:00,40.0,37.0,29.75,NNE,23,0.0,0.0,90,0.00,,,0.00,,2013-03-13 07:12:00,
2013-03-13 03:22:00,40.0,37.0,29.75,North,0,2.0,5.0,90,0.00,,,0.00,,2013-03-13 07:22:00,
2013-03-13 03:32:00,40.0,37.0,29.76,NW,325,1.0,3.0,89,0.00,,,0.00,,2013-03-13 07:32:00,
2013-03-13 03:42:00,40.0,37.0,29.76,NW,325,1.0,3.0,89,0.00,,,0.00,,2013-03-13 07:42:00,
2013-03-13 03:53:00,39.0,36.0,29.76,NW,315,2.0,4.0,89,0.00,,,0.00,,2013-03-13 07:53:00,
2013-03-13 04:03:00,39.0,36.0,29.76,NNW,338,4.0,8.0,88,0.00,,,0.00,,2013-03-13 08:03:00,
2013-03-13 04:12:00,39.0,36.0,29.76,NNW,338,4.0,8.0,88,0.00,,,0.00,,2013-03-13 08:12:00,
2013-03-13 04:22:00,39.0,35.0,29.76,NNE,23,6.0,7.0,87,0.00,,,0.00,,2013-03-13 08:22:00,
2013-03-13 04:32:00,39.0,35.0,29.76,NNE,23,0.0,4.0,86,0.00,,,0.00,,2013-03-13 08:32:00,
2013-03-13 04:43:00,39.0,35.0,29.76,NNE,23,0.0,4.0,86,0.00,,,0.00,,2013-03-13 08:43:00,
2013-03-13 04:54:00,38.0,34.0,29.77,NNW,338,0.0,4.0,86,0.00,,,0.00,,2013-03-13 08:54:00,
2013-03-13 05:02:00,37.0,33.0,29.77,NW,315,0.0,0.0,86,0.00,,,0.00,,2013-03-13 09:02:00,
2013-03-13 05:12:00,37.0,33.0,29.77,NW,315,0.0,0.0,86,0.00,,,0.00,,2013-03-13 09:12:00,
2013-03-13 05:22:00,37.0,33.0,29.77,NW,312,4.0,5.0,86,0.00,,,0.00,,2013-03-13 09:22:00,
2013-03-13 05:32:00,36.0,32.0,29.77,NNW,338,0.0,0.0,86,0.00,,,0.00,,2013-03-13 09:32:00,
2013-03-13 05:42:00,36.0,32.0,29.77,NNW,338,0.0,0.0,86,0.00,,,0.00,,2013-03-13 09:42:00,
2013-03-13 05:52:00,36.0,32.0,29.77,North,0,7.0,7.0,85,0.00,,,0.00,,2013-03-13 09:52:00,
2013-03-13 06:02:00,35.0,31.0,29.78,NNW,338,0.0,0.0,85,0.00,,,0.00,,2013-03-13 10:02:00,
2013-03-13 06:12:00,35.0,31.0,29.78,NNW,338,0.0,0.0,85,0.00,,,0.00,,2013-03-13 10:12:00,
2013-03-13 06:22:00,35.0,31.0,29.78,NNW,338,0.0,0.0,85,0.00,,,0.00,,2013-03-13 10:22:00,
2013-03-13 06:32:00,34.0,30.0,29.78,NNE,23,0.0,2.0,85,0.00,,,0.00,,2013-03-13 10:32:00,
2013-03-13 06:42:00,34.0,30.0,29.78,NNE,23,0.0,2.0,85,0.00,,,0.00,,2013-03-13 10:42:00,
2013-03-13 06:52:00,34.0,30.0,29.77,NW,315,0.0,0.0,85,0.00,,,0.00,,2013-03-13 10:52:00,
2013-03-13 07:02:00,34.0,30.0,29.77,WNW,293,0.0,0.0,85,0.00,,,0.00,,2013-03-13 11:02:00,
2013-03-13 07:12:00,34.0,30.0,29.77,WNW,293,0.0,0.0,85,0.00,,,0.00,,2013-03-13 11:12:00,
2013-03-13 07:22:00,33.0,29.0,29.77,West,270,0.0,3.0,85,0.00,,,0.00,,2013-03-13 11:22:00,
2013-03-13 07:32:00,33.0,29.0,29.77,NW,315,0.0,0.0,84,0.00,,,0.00,,2013-03-13 11:32:00,
2013-03-13 07:42:00,33.0,29.0,29.77,NW,315,0.0,0.0,84,0.00,,,0.00,,2013-03-13 11:42:00,
2013-03-13 07:53:00,33.0,29.0,29.77,WNW,293,4.0,5.0,85,0.00,,,0.00,,2013-03-13 11:53:00,
2013-03-13 08:02:00,33.0,29.0,29.77,WNW,293,0.0,0.0,85,0.00,,,0.00,,2013-03-13 12:02:00,
2013-03-13 08:12:00,33.0,29.0,29.77,WNW,293,0.0,0.0,85,0.00,,,0.00,,2013-03-13 12:12:00,
2013-03-13 08:22:00,34.0,30.0,29.77,WNW,293,0.0,5.0,85,0.00,,,0.00,,2013-03-13 12:22:00,
2013-03-13 08:32:00,34.0,30.0,29.77,NW,315,0.0,0.0,84,0.00,,,0.00,,2013-03-13 12:32:00,
2013-03-13 08:42:00,34.0,30.0,29.77,NW,315,0.0,0.0,84,0.00,,,0.00,,2013-03-13 12:42:00,
2013-03-13 08:53:00,35.0,30.0,29.78,NNE,23,0.0,0.0,83,0.00,,,0.00,,2013-03-13 12:53:00,
2013-03-13 09:02:00,36.0,31.0,29.78,NNE,23,6.0,6.0,82,0.00,,,0.00,,2013-03-13 13:02:00,
2013-03-13 09:12:00,36.0,31.0,29.78,NNE,23,6.0,6.0,82,0.00,,,0.00,,2013-03-13 13:12:00,
2013-03-13 09:22:00,37.0,32.0,29.78,NNE,23,2.0,7.0,81,0.00,,,0.00,,2013-03-13 13:22:00,
2013-03-13 09:33:00,37.0,31.0,29.77,NW,322,3.0,4.0,80,0.00,,,0.00,,2013-03-13 13:33:00,
2013-03-13 09:43:00,37.0,31.0,29.77,NW,322,3.0,4.0,80,0.00,,,0.00,,2013-03-13 13:43:00,
2013-03-13 09:53:00,38.0,32.0,29.78,NE,45,0.0,0.0,79,0.00,,,0.00,,2013-03-13 13:53:00,
2013-03-13 10:02:00,39.0,33.0,29.78,NW,315,0.0,0.0,78,0.00,,,0.00,,2013-03-13 14:02:00,
2013-03-13 10:12:00,39.0,33.0,29.78,NW,315,0.0,0.0,78,0.00,,,0.00,,2013-03-13 14:12:00,
2013-03-13 10:22:00,41.0,34.0,29.77,NW,315,0.0,2.0,75,0.00,,,0.00,,2013-03-13 14:22:00,
2013-03-13 10:33:00,42.0,34.0,29.77,West,278,4.0,7.0,73,0.00,,,0.00,,2013-03-13 14:33:00,
2013-03-13 10:42:00,42.0,34.0,29.77,West,278,4.0,7.0,73,0.00,,,0.00,,2013-03-13 14:42:00,
2013-03-13 10:53:00,42.0,33.0,29.77,NE,45,9.0,9.0,71,0.00,,,0.00,,2013-03-13 14:53:00,
2013-03-13 11:03:00,42.0,33.0,29.76,West,270,5.0,5.0,71,0.00,,,0.00,,2013-03-13 15:03:00,
2013-03-13 11:12:00,42.0,33.0,29.76,West,270,5.0,5.0,71,0.00,,,0.00,,2013-03-13 15:12:00,
2013-03-13 11:22:00,43.0,34.0,29.76,WNW,300,5.0,10.0,69,0.00,,,0.00,,2013-03-13 15:22:00,
2013-03-13 11:32:00,44.0,34.0,29.76,NNE,23,7.0,8.0,67,0.00,,,0.00,,2013-03-13 15:32:00,
2013-03-13 11:42:00,44.0,34.0,29.76,NNE,23,7.0,8.0,67,0.00,,,0.00,,2013-03-13 15:42:00,
2013-03-13 11:53:00,45.0,34.0,29.76,NNW,330,4.0,9.0,65,0.00,,,0.00,,2013-03-13 15:53:00,
2013-03-13 12:03:00,46.0,34.0,29.76,West,270,4.0,8.0,62,0.00,,,0.00,,2013-03-13 16:03:00,
2013-03-13 12:12:00,46.0,34.0,29.76,West,270,4.0,8.0,62,0.00,,,0.00,,2013-03-13 16:12:00,
2013-03-13 12:22:00,47.0,33.0,29.76,NNW,344,7.0,8.0,59,0.00,,,0.00,,2013-03-13 16:22:00,
2013-03-13 12:32:00,48.0,34.0,29.75,WNW,293,4.0,9.0,58,0.00,,,0.00,,2013-03-13 16:32:00,
2013-03-13 12:42:00,48.0,34.0,29.75,WNW,293,4.0,9.0,58,0.00,,,0.00,,2013-03-13 16:42:00,
2013-03-13 12:52:00,54.0,36.0,29.75,NNE,29,3.0,9.0,51,0.00,,,0.00,,2013-03-13 16:52:00,
2013-03-13 13:02:00,62.0,39.0,29.75,North,0,2.0,5.0,43,0.00,,,0.00,,2013-03-13 17:02:00,
2013-03-13 13:12:00,62.0,39.0,29.75,North,0,2.0,5.0,43,0.00,,,0.00,,2013-03-13 17:12:00,
2013-03-13 13:22:00,64.0,39.0,29.75,West,262,6.0,9.0,39,0.00,,,0.00,,2013-03-13 17:22:00,
2013-03-13 13:32:00,67.0,38.0,29.75,WSW,257,6.0,7.0,35,0.00,,,0.00,,2013-03-13 17:32:00,
2013-03-13 13:42:00,67.0,38.0,29.75,WSW,257,6.0,7.0,35,0.00,,,0.00,,2013-03-13 17:42:00,
2013-03-13 13:53:00,68.0,39.0,29.74,WSW,248,6.0,10.0,34,0.00,,,0.00,,2013-03-13 17:53:00,
2013-03-13 14:02:00,67.0,37.0,29.73,WSW,248,0.0,7.0,33,0.00,,,0.00,,2013-03-13 18:02:00,
2013-03-13 14:12:00,67.0,37.0,29.73,WSW,248,0.0,7.0,33,0.00,,,0.00,,2013-03-13 18:12:00,
2013-03-13 14:22:00,59.0,33.0,29.73,SE,135,7.0,8.0,37,0.00,,,0.00,,2013-03-13 18:22:00,
2013-03-13 14:33:00,54.0,30.0,29.72,WSW,248,0.0,7.0,40,0.00,,,0.00,,2013-03-13 18:33:00,
2013-03-13 14:42:00,54.0,30.0,29.72,WSW,248,0.0,7.0,40,0.00,,,0.00,,2013-03-13 18:42:00,
2013-03-13 14:52:00,51.0,29.0,29.72,WSW,248,3.0,6.0,42,0.00,,,0.00,,2013-03-13 18:52:00,
2013-03-13 15:02:00,50.0,28.0,29.72,WSW,248,5.0,9.0,43,0.00,,,0.00,,2013-03-13 19:02:00,
2013-03-13 15:12:00,50.0,28.0,29.72,WSW,248,5.0,9.0,43,0.00,,,0.00,,2013-03-13 19:12:00,
2013-03-13 15:22:00,50.0,28.0,29.71,WSW,248,8.0,10.0,42,0.00,,,0.00,,2013-03-13 19:22:00,
2013-03-13 15:32:00,49.0,27.0,29.72,WSW,248,0.0,8.0,43,0.00,,,0.00,,2013-03-13 19:32:00,
2013-03-13 15:43:00,49.0,27.0,29.72,WSW,248,0.0,8.0,43,0.00,,,0.00,,2013-03-13 19:43:00,
2013-03-13 15:53:00,50.0,28.0,29.71,WSW,248,8.0,11.0,42,0.00,,,0.00,,2013-03-13 19:53:00,
2013-03-13 16:02:00,50.0,28.0,29.70,WSW,248,8.0,8.0,43,0.00,,,0.00,,2013-03-13 20:02:00,
2013-03-13 16:12:00,50.0,28.0,29.70,WSW,248,8.0,8.0,43,0.00,,,0.00,,2013-03-13 20:12:00,
2013-03-13 16:22:00,50.0,28.0,29.71,WSW,248,4.0,7.0,42,0.00,,,0.00,,2013-03-13 20:22:00,
2013-03-13 16:32:00,55.0,29.0,29.71,WSW,248,5.0,8.0,37,0.00,,,0.00,,2013-03-13 20:32:00,
2013-03-13 16:42:00,55.0,29.0,29.71,WSW,248,5.0,8.0,37,0.00,,,0.00,,2013-03-13 20:42:00,
2013-03-13 16:52:00,57.0,30.0,29.71,WSW,248,7.0,8.0,35,0.00,,,0.00,,2013-03-13 20:52:00,
2013-03-13 17:02:00,55.0,29.0,29.71,West,261,3.0,6.0,36,0.00,,,0.00,,2013-03-13 21:02:00,
2013-03-13 17:12:00,55.0,29.0,29.71,West,261,3.0,6.0,36,0.00,,,0.00,,2013-03-13 21:12:00,
2013-03-13 17:22:00,53.0,27.0,29.71,WSW,248,3.0,8.0,37,0.00,,,0.00,,2013-03-13 21:22:00,
2013-03-13 17:33:00,53.0,27.0,29.72,WSW,248,6.0,8.0,37,0.00,,,0.00,,2013-03-13 21:33:00,
2013-03-13 17:42:00,53.0,27.0,29.72,WSW,248,6.0,8.0,37,0.00,,,0.00,,2013-03-13 21:42:00,
2013-03-13 17:52:00,52.0,26.0,29.72,NNE,30,4.0,11.0,36,0.00,,,0.00,,2013-03-13 21:52:00,
2013-03-13 18:02:00,52.0,27.0,29.72,North,0,3.0,7.0,38,0.00,,,0.00,,2013-03-13 22:02:00,
2013-03-13 18:12:00,52.0,27.0,29.72,North,0,3.0,7.0,38,0.00,,,0.00,,2013-03-13 22:12:00,
2013-03-13 18:22:00,51.0,26.0,29.72,NE,45,6.0,10.0,37,0.00,,,0.00,,2013-03-13 22:22:00,
2013-03-13 18:32:00,49.0,25.0,29.73,NW,323,5.0,8.0,38,0.00,,,0.00,,2013-03-13 22:32:00,
2013-03-13 18:42:00,49.0,25.0,29.73,NW,323,5.0,8.0,38,0.00,,,0.00,,2013-03-13 22:42:00,
2013-03-13 18:52:00,46.0,24.0,29.73,WNW,293,6.0,6.0,41,0.00,,,0.00,,2013-03-13 22:52:00,
2013-03-13 19:02:00,44.0,23.0,29.74,NW,315,0.0,3.0,43,0.00,,,0.00,,2013-03-13 23:02:00,
2013-03-13 19:12:00,44.0,23.0,29.74,NW,315,0.0,3.0,43,0.00,,,0.00,,2013-03-13 23:12:00,
2013-03-13 19:22:00,43.0,23.0,29.74,WNW,293,0.0,0.0,45,0.00,,,0.00,,2013-03-13 23:22:00,
2013-03-13 19:32:00,42.0,23.0,29.75,WNW,293,0.0,2.0,46,0.00,,,0.00,,2013-03-13 23:32:00,
2013-03-13 19:42:00,42.0,23.0,29.75,WNW,293,0.0,2.0,46,0.00,,,0.00,,2013-03-13 23:42:00,
2013-03-13 19:52:00,41.0,22.0,29.75,ENE,68,5.0,5.0,47,0.00,,,0.00,,2013-03-13 23:52:00,
2013-03-13 20:02:00,40.0,22.0,29.75,West,270,0.0,0.0,48,0.00,,,0.00,,2013-03-14 00:02:00,
2013-03-13 20:13:00,40.0,22.0,29.75,West,270,0.0,0.0,48,0.00,,,0.00,,2013-03-14 00:13:00,
2013-03-13 20:22:00,40.0,22.0,29.76,WNW,293,0.0,0.0,48,0.00,,,0.00,,2013-03-14 00:22:00,
2013-03-13 20:32:00,39.0,21.0,29.76,WNW,293,0.0,0.0,49,0.00,,,0.00,,2013-03-14 00:32:00,
2013-03-13 20:42:00,39.0,21.0,29.76,WNW,293,0.0,0.0,49,0.00,,,0.00,,2013-03-14 00:42:00,
2013-03-13 20:52:00,39.0,22.0,29.77,WNW,293,0.0,0.0,50,0.00,,,0.00,,2013-03-14 00:52:00,
2013-03-13 21:02:00,38.0,21.0,29.76,WNW,293,0.0,0.0,50,0.00,,,0.00,,2013-03-14 01:02:00,
2013-03-13 21:12:00,38.0,21.0,29.76,WNW,293,0.0,0.0,50,0.00,,,0.00,,2013-03-14 01:12:00,
2013-03-13 21:22:00,38.0,22.0,29.77,WNW,293,0.0,0.0,51,0.00,,,0.00,,2013-03-14 01:22:00,
2013-03-13 21:32:00,38.0,22.0,29.77,WNW,293,0.0,0.0,51,0.00,,,0.00,,2013-03-14 01:32:00,
2013-03-13 21:42:00,38.0,22.0,29.77,WNW,293,0.0,0.0,51,0.00,,,0.00,,2013-03-14 01:42:00,
2013-03-13 21:53:00,37.0,21.0,29.77,WNW,293,0.0,0.0,52,0.00,,,0.00,,2013-03-14 01:53:00,
2013-03-13 22:02:00,37.0,21.0,29.77,WNW,293,0.0,0.0,52,0.00,,,0.00,,2013-03-14 02:02:00,
2013-03-13 22:12:00,37.0,21.0,29.77,WNW,293,0.0,0.0,52,0.00,,,0.00,,2013-03-14 02:12:00,
2013-03-13 22:22:00,37.0,21.0,29.77,West,270,0.0,0.0,52,0.00,,,0.00,,2013-03-14 02:22:00,
2013-03-13 22:32:00,37.0,21.0,29.77,West,270,0.0,0.0,53,0.00,,,0.00,,2013-03-14 02:32:00,
2013-03-13 22:42:00,37.0,21.0,29.77,West,270,0.0,0.0,53,0.00,,,0.00,,2013-03-14 02:42:00,
2013-03-13 22:52:00,37.0,21.0,29.77,West,270,0.0,0.0,53,0.00,,,0.00,,2013-03-14 02:52:00,
2013-03-13 23:02:00,36.0,21.0,29.77,WSW,248,0.0,0.0,55,0.00,,,0.00,,2013-03-14 03:02:00,
2013-03-13 23:12:00,36.0,21.0,29.77,WSW,248,0.0,0.0,55,0.00,,,0.00,,2013-03-14 03:12:00,
2013-03-13 23:23:00,35.0,21.0,29.77,North,0,0.0,0.0,56,0.00,,,0.00,,2013-03-14 03:23:00,
2013-03-13 23:32:00,35.0,21.0,29.77,West,270,0.0,0.0,56,0.00,,,0.00,,2013-03-14 03:32:00,
2013-03-13 23:42:00,35.0,21.0,29.77,West,270,0.0,0.0,56,0.00,,,0.00,,2013-03-14 03:42:00,
2013-03-13 23:53:00,35.0,21.0,29.77,West,270,0.0,0.0,57,0.00,,,0.00,,2013-03-14 03:53:00,